sensor_id;sensor_type;location;lat;lon;timestamp;temperature;humidity
74809;DHT22;63338;39.544;2.596;2023-04-06T11:16:15;24.30;50.30
74809;DHT22;63338;39.544;2.596;2023-04-06T11:21:38;24.10;51.10
74809;DHT22;63338;39.544;2.596;2023-04-06T11:24:15;23.90;51.00
74809;DHT22;63338;39.544;2.596;2023-04-06T11:26:45;23.80;50.90
74809;DHT22;63338;39.544;2.596;2023-04-06T11:29:15;23.90;50.60
74809;DHT22;63338;39.544;2.596;2023-04-06T11:31:42;23.90;50.60
74809;DHT22;63338;39.544;2.596;2023-04-06T11:34:17;23.90;50.50
74809;DHT22;63338;39.544;2.596;2023-04-06T11:36:47;24.00;49.80
74809;DHT22;63338;39.544;2.596;2023-04-06T11:39:19;24.00;49.60
74809;DHT22;63338;39.544;2.596;2023-04-06T11:42:08;23.90;50.70
74809;DHT22;63338;39.544;2.596;2023-04-06T11:44:39;23.80;48.40
74809;DHT22;63338;39.544;2.596;2023-04-06T11:47:07;23.90;50.50
74809;DHT22;63338;39.544;2.596;2023-04-06T11:49:37;23.70;48.60
74809;DHT22;63338;39.544;2.596;2023-04-06T11:52:17;23.70;46.10
74809;DHT22;63338;39.544;2.596;2023-04-06T11:54:43;23.90;47.80
74809;DHT22;63338;39.544;2.596;2023-04-06T11:57:12;23.90;49.50
74809;DHT22;63338;39.544;2.596;2023-04-06T11:59:38;23.80;49.60
74809;DHT22;63338;39.544;2.596;2023-04-06T12:02:04;23.70;49.60
74809;DHT22;63338;39.544;2.596;2023-04-06T12:04:31;23.80;49.80
74809;DHT22;63338;39.544;2.596;2023-04-06T12:06:58;23.70;50.80
74809;DHT22;63338;39.544;2.596;2023-04-06T12:09:24;23.60;51.20
74809;DHT22;63338;39.544;2.596;2023-04-06T12:11:51;23.50;50.80
74809;DHT22;63338;39.544;2.596;2023-04-06T12:14:17;23.40;51.50
74809;DHT22;63338;39.544;2.596;2023-04-06T12:16:43;23.10;50.60
74809;DHT22;63338;39.544;2.596;2023-04-06T12:19:10;23.00;51.10
74809;DHT22;63338;39.544;2.596;2023-04-06T12:21:36;22.90;51.00
74809;DHT22;63338;39.544;2.596;2023-04-06T12:24:05;22.70;50.80
74809;DHT22;63338;39.544;2.596;2023-04-06T12:26:31;22.40;51.30
74809;DHT22;63338;39.544;2.596;2023-04-06T12:28:58;22.20;51.40
74809;DHT22;63338;39.544;2.596;2023-04-06T12:31:36;21.90;52.60
74809;DHT22;63338;39.544;2.596;2023-04-06T12:34:04;21.70;53.90
74809;DHT22;63338;39.544;2.596;2023-04-06T12:36:33;21.40;53.10
74809;DHT22;63338;39.544;2.596;2023-04-06T12:39:00;21.10;55.30
74809;DHT22;63338;39.544;2.596;2023-04-06T12:41:27;21.00;55.20
74809;DHT22;63338;39.544;2.596;2023-04-06T12:43:53;20.90;55.10
74809;DHT22;63338;39.544;2.596;2023-04-06T12:46:20;20.80;57.30
74809;DHT22;63338;39.544;2.596;2023-04-06T12:48:48;20.60;56.50
74809;DHT22;63338;39.544;2.596;2023-04-06T12:51:15;20.40;57.10
74809;DHT22;63338;39.544;2.596;2023-04-06T12:53:43;20.40;56.70
74809;DHT22;63338;39.544;2.596;2023-04-06T12:56:14;20.20;57.30
74809;DHT22;63338;39.544;2.596;2023-04-06T12:58:41;20.10;55.80
74809;DHT22;63338;39.544;2.596;2023-04-06T13:01:08;20.10;54.80
74809;DHT22;63338;39.544;2.596;2023-04-06T13:03:34;20.10;53.20
74809;DHT22;63338;39.544;2.596;2023-04-06T13:06:03;20.10;52.80
74809;DHT22;63338;39.544;2.596;2023-04-06T13:08:29;20.10;50.70
74809;DHT22;63338;39.544;2.596;2023-04-06T13:10:56;20.00;51.70
74809;DHT22;63338;39.544;2.596;2023-04-06T13:13:27;20.10;50.10
74809;DHT22;63338;39.544;2.596;2023-04-06T13:15:55;20.10;49.80
74809;DHT22;63338;39.544;2.596;2023-04-06T13:18:21;20.00;50.80
74809;DHT22;63338;39.544;2.596;2023-04-06T13:20:51;20.00;50.40
74809;DHT22;63338;39.544;2.596;2023-04-06T13:23:19;19.90;51.70
74809;DHT22;63338;39.544;2.596;2023-04-06T13:25:45;19.80;50.30
74809;DHT22;63338;39.544;2.596;2023-04-06T13:28:11;19.80;51.20
74809;DHT22;63338;39.544;2.596;2023-04-06T13:30:37;19.90;51.50
74809;DHT22;63338;39.544;2.596;2023-04-06T13:33:04;19.80;51.50
74809;DHT22;63338;39.544;2.596;2023-04-06T13:35:33;19.80;52.40
74809;DHT22;63338;39.544;2.596;2023-04-06T13:38:01;19.90;55.30
74809;DHT22;63338;39.544;2.596;2023-04-06T13:40:28;19.80;55.40
74809;DHT22;63338;39.544;2.596;2023-04-06T13:42:55;19.70;55.70
74809;DHT22;63338;39.544;2.596;2023-04-06T13:45:21;19.70;56.80
74809;DHT22;63338;39.544;2.596;2023-04-06T13:47:47;19.70;55.70
74809;DHT22;63338;39.544;2.596;2023-04-06T13:50:13;19.60;52.30
74809;DHT22;63338;39.544;2.596;2023-04-06T13:52:40;19.60;52.80
74809;DHT22;63338;39.544;2.596;2023-04-06T13:55:06;19.50;54.70
74809;DHT22;63338;39.544;2.596;2023-04-06T13:57:32;19.40;52.60
74809;DHT22;63338;39.544;2.596;2023-04-06T13:59:58;19.40;54.00
74809;DHT22;63338;39.544;2.596;2023-04-06T14:02:24;19.40;54.90
74809;DHT22;63338;39.544;2.596;2023-04-06T14:04:53;19.40;54.80
74809;DHT22;63338;39.544;2.596;2023-04-06T14:07:20;19.50;55.80
74809;DHT22;63338;39.544;2.596;2023-04-06T14:09:50;19.50;55.90
74809;DHT22;63338;39.544;2.596;2023-04-06T14:12:16;19.40;55.20
74809;DHT22;63338;39.544;2.596;2023-04-06T14:14:42;19.30;55.00
74809;DHT22;63338;39.544;2.596;2023-04-06T14:17:17;19.30;56.80
74809;DHT22;63338;39.544;2.596;2023-04-06T14:19:43;19.20;56.70
74809;DHT22;63338;39.544;2.596;2023-04-06T14:22:10;19.00;57.10
74809;DHT22;63338;39.544;2.596;2023-04-06T14:24:36;18.90;58.00
74809;DHT22;63338;39.544;2.596;2023-04-06T14:27:02;19.00;57.30
74809;DHT22;63338;39.544;2.596;2023-04-06T14:29:28;19.00;57.30
74809;DHT22;63338;39.544;2.596;2023-04-06T14:31:54;18.90;58.80
74809;DHT22;63338;39.544;2.596;2023-04-06T14:34:25;18.90;58.70
74809;DHT22;63338;39.544;2.596;2023-04-06T14:36:52;18.80;59.20
74809;DHT22;63338;39.544;2.596;2023-04-06T14:39:18;18.70;59.10
74809;DHT22;63338;39.544;2.596;2023-04-06T14:41:45;18.80;58.90
74809;DHT22;63338;39.544;2.596;2023-04-06T14:44:16;18.70;58.70
74809;DHT22;63338;39.544;2.596;2023-04-06T14:46:42;18.80;59.70
74809;DHT22;63338;39.544;2.596;2023-04-06T14:49:08;18.80;57.90
74809;DHT22;63338;39.544;2.596;2023-04-06T14:51:35;18.80;58.80
74809;DHT22;63338;39.544;2.596;2023-04-06T14:54:01;18.70;58.20
74809;DHT22;63338;39.544;2.596;2023-04-06T14:56:31;18.70;59.00
74809;DHT22;63338;39.544;2.596;2023-04-06T14:59:00;18.70;58.70
74809;DHT22;63338;39.544;2.596;2023-04-06T15:01:27;18.60;58.10
74809;DHT22;63338;39.544;2.596;2023-04-06T15:03:53;18.60;57.00
74809;DHT22;63338;39.544;2.596;2023-04-06T15:06:20;18.60;58.30
74809;DHT22;63338;39.544;2.596;2023-04-06T15:08:47;18.60;58.50
74809;DHT22;63338;39.544;2.596;2023-04-06T15:11:13;18.60;59.40
74809;DHT22;63338;39.544;2.596;2023-04-06T15:13:40;18.60;58.70
74809;DHT22;63338;39.544;2.596;2023-04-06T15:16:07;18.60;58.20
74809;DHT22;63338;39.544;2.596;2023-04-06T15:18:34;18.60;58.60
74809;DHT22;63338;39.544;2.596;2023-04-06T15:21:01;18.60;59.40
74809;DHT22;63338;39.544;2.596;2023-04-06T15:23:27;18.60;59.70
74809;DHT22;63338;39.544;2.596;2023-04-06T15:25:57;18.60;59.90
74809;DHT22;63338;39.544;2.596;2023-04-06T15:28:24;18.60;59.40
74809;DHT22;63338;39.544;2.596;2023-04-06T15:30:50;18.60;60.60
74809;DHT22;63338;39.544;2.596;2023-04-06T15:33:16;18.60;60.00
74809;DHT22;63338;39.544;2.596;2023-04-06T15:35:43;18.60;58.70
74809;DHT22;63338;39.544;2.596;2023-04-06T15:38:09;18.60;59.70
74809;DHT22;63338;39.544;2.596;2023-04-06T15:40:47;18.50;60.50
74809;DHT22;63338;39.544;2.596;2023-04-06T15:43:14;18.50;60.30
74809;DHT22;63338;39.544;2.596;2023-04-06T15:45:40;18.40;60.20
74809;DHT22;63338;39.544;2.596;2023-04-06T15:48:08;18.40;59.80
74809;DHT22;63338;39.544;2.596;2023-04-06T15:50:35;18.40;60.60
74809;DHT22;63338;39.544;2.596;2023-04-06T15:53:01;18.40;60.80
74809;DHT22;63338;39.544;2.596;2023-04-06T15:55:27;18.40;60.30
74809;DHT22;63338;39.544;2.596;2023-04-06T15:57:53;18.30;61.10
74809;DHT22;63338;39.544;2.596;2023-04-06T16:00:20;18.30;61.00
74809;DHT22;63338;39.544;2.596;2023-04-06T16:02:46;18.30;61.40
74809;DHT22;63338;39.544;2.596;2023-04-06T16:05:12;18.30;61.70
74809;DHT22;63338;39.544;2.596;2023-04-06T16:07:39;18.20;61.80
74809;DHT22;63338;39.544;2.596;2023-04-06T16:10:06;18.10;63.50
74809;DHT22;63338;39.544;2.596;2023-04-06T16:12:32;17.90;63.50
74809;DHT22;63338;39.544;2.596;2023-04-06T16:14:58;18.00;63.50
74809;DHT22;63338;39.544;2.596;2023-04-06T16:17:25;18.00;62.90
74809;DHT22;63338;39.544;2.596;2023-04-06T16:19:51;17.90;63.20
74809;DHT22;63338;39.544;2.596;2023-04-06T16:22:17;18.00;63.90
74809;DHT22;63338;39.544;2.596;2023-04-06T16:24:44;18.10;63.20
74809;DHT22;63338;39.544;2.596;2023-04-06T16:27:10;18.00;62.80
74809;DHT22;63338;39.544;2.596;2023-04-06T16:29:36;18.00;63.20
74809;DHT22;63338;39.544;2.596;2023-04-06T16:32:03;17.90;63.20
74809;DHT22;63338;39.544;2.596;2023-04-06T16:34:33;18.00;62.80
74809;DHT22;63338;39.544;2.596;2023-04-06T16:36:59;18.00;63.00
74809;DHT22;63338;39.544;2.596;2023-04-06T16:39:26;18.10;62.50
74809;DHT22;63338;39.544;2.596;2023-04-06T16:41:52;17.90;61.90
74809;DHT22;63338;39.544;2.596;2023-04-06T16:44:18;17.80;62.70
74809;DHT22;63338;39.544;2.596;2023-04-06T16:46:44;17.80;62.60
74809;DHT22;63338;39.544;2.596;2023-04-06T16:49:11;17.80;62.70
74809;DHT22;63338;39.544;2.596;2023-04-06T16:51:39;17.90;63.00
74809;DHT22;63338;39.544;2.596;2023-04-06T16:54:05;17.80;62.80
74809;DHT22;63338;39.544;2.596;2023-04-06T16:56:32;17.80;62.90
74809;DHT22;63338;39.544;2.596;2023-04-06T16:58:58;17.70;62.70
74809;DHT22;63338;39.544;2.596;2023-04-06T17:01:27;17.70;63.10
74809;DHT22;63338;39.544;2.596;2023-04-06T17:03:53;17.70;63.30
74809;DHT22;63338;39.544;2.596;2023-04-06T17:06:21;17.70;63.60
74809;DHT22;63338;39.544;2.596;2023-04-06T17:08:47;17.60;62.80
74809;DHT22;63338;39.544;2.596;2023-04-06T17:11:15;17.60;62.40
74809;DHT22;63338;39.544;2.596;2023-04-06T17:13:41;17.50;62.10
74809;DHT22;63338;39.544;2.596;2023-04-06T17:16:08;17.40;62.30
74809;DHT22;63338;39.544;2.596;2023-04-06T17:18:34;17.50;62.90
74809;DHT22;63338;39.544;2.596;2023-04-06T17:21:09;17.40;63.10
74809;DHT22;63338;39.544;2.596;2023-04-06T17:23:39;17.40;63.60
74809;DHT22;63338;39.544;2.596;2023-04-06T17:26:07;17.40;63.10
74809;DHT22;63338;39.544;2.596;2023-04-06T17:28:33;17.40;63.20
74809;DHT22;63338;39.544;2.596;2023-04-06T17:31:00;17.40;62.10
74809;DHT22;63338;39.544;2.596;2023-04-06T17:33:27;17.40;62.90
74809;DHT22;63338;39.544;2.596;2023-04-06T17:35:53;17.30;63.00
74809;DHT22;63338;39.544;2.596;2023-04-06T17:38:20;17.30;63.50
74809;DHT22;63338;39.544;2.596;2023-04-06T17:40:46;17.30;63.60
74809;DHT22;63338;39.544;2.596;2023-04-06T17:43:12;17.20;63.70
74809;DHT22;63338;39.544;2.596;2023-04-06T17:45:38;17.20;63.60
74809;DHT22;63338;39.544;2.596;2023-04-06T17:48:04;17.20;63.10
74809;DHT22;63338;39.544;2.596;2023-04-06T17:50:31;17.20;63.40
74809;DHT22;63338;39.544;2.596;2023-04-06T17:52:57;17.10;63.40
74809;DHT22;63338;39.544;2.596;2023-04-06T17:55:23;17.10;63.70
74809;DHT22;63338;39.544;2.596;2023-04-06T17:57:49;17.10;64.00
74809;DHT22;63338;39.544;2.596;2023-04-06T18:00:16;17.10;64.40
74809;DHT22;63338;39.544;2.596;2023-04-06T18:02:45;17.10;64.50
74809;DHT22;63338;39.544;2.596;2023-04-06T18:05:11;17.10;64.40
74809;DHT22;63338;39.544;2.596;2023-04-06T18:07:38;17.00;64.80
74809;DHT22;63338;39.544;2.596;2023-04-06T18:10:04;16.90;64.90
74809;DHT22;63338;39.544;2.596;2023-04-06T18:12:31;16.90;65.30
74809;DHT22;63338;39.544;2.596;2023-04-06T18:14:58;16.90;65.40
74809;DHT22;63338;39.544;2.596;2023-04-06T18:17:24;16.80;65.40
74809;DHT22;63338;39.544;2.596;2023-04-06T18:19:53;16.80;65.90
74809;DHT22;63338;39.544;2.596;2023-04-06T18:22:19;16.80;66.00
74809;DHT22;63338;39.544;2.596;2023-04-06T18:24:46;16.60;66.00
74809;DHT22;63338;39.544;2.596;2023-04-06T18:27:12;16.70;66.10
74809;DHT22;63338;39.544;2.596;2023-04-06T18:29:39;16.60;66.20
74809;DHT22;63338;39.544;2.596;2023-04-06T18:32:05;16.50;66.40
74809;DHT22;63338;39.544;2.596;2023-04-06T18:34:32;16.50;66.80
74809;DHT22;63338;39.544;2.596;2023-04-06T18:37:00;16.40;66.90
74809;DHT22;63338;39.544;2.596;2023-04-06T18:39:27;16.30;67.40
74809;DHT22;63338;39.544;2.596;2023-04-06T18:41:53;16.20;67.50
74809;DHT22;63338;39.544;2.596;2023-04-06T18:44:18;16.20;67.70
74809;DHT22;63338;39.544;2.596;2023-04-06T18:46:45;16.10;68.00
74809;DHT22;63338;39.544;2.596;2023-04-06T18:49:14;15.90;68.10
74809;DHT22;63338;39.544;2.596;2023-04-06T18:51:41;15.80;68.20
74809;DHT22;63338;39.544;2.596;2023-04-06T18:54:08;15.70;68.40
74809;DHT22;63338;39.544;2.596;2023-04-06T18:56:34;15.70;68.70
74809;DHT22;63338;39.544;2.596;2023-04-06T18:59:01;15.50;68.50
74809;DHT22;63338;39.544;2.596;2023-04-06T19:01:29;15.40;68.70
74809;DHT22;63338;39.544;2.596;2023-04-06T19:03:56;15.40;70.10
74809;DHT22;63338;39.544;2.596;2023-04-06T19:06:22;15.30;70.30
74809;DHT22;63338;39.544;2.596;2023-04-06T19:08:49;15.20;70.40
74809;DHT22;63338;39.544;2.596;2023-04-06T19:11:16;15.20;70.50
74809;DHT22;63338;39.544;2.596;2023-04-06T19:13:42;15.10;70.60
74809;DHT22;63338;39.544;2.596;2023-04-06T19:16:15;15.10;70.60
74809;DHT22;63338;39.544;2.596;2023-04-06T19:18:41;15.00;71.00
74809;DHT22;63338;39.544;2.596;2023-04-06T19:21:18;14.90;70.90
74809;DHT22;63338;39.544;2.596;2023-04-06T19:23:45;14.90;71.20
74809;DHT22;63338;39.544;2.596;2023-04-06T19:26:12;14.80;71.40
74809;DHT22;63338;39.544;2.596;2023-04-06T19:28:44;14.70;71.60
74809;DHT22;63338;39.544;2.596;2023-04-06T19:31:12;14.70;71.60
74809;DHT22;63338;39.544;2.596;2023-04-06T19:33:39;14.70;71.90
74809;DHT22;63338;39.544;2.596;2023-04-06T19:36:07;14.80;71.90
74809;DHT22;63338;39.544;2.596;2023-04-06T19:38:34;14.60;71.90
74809;DHT22;63338;39.544;2.596;2023-04-06T19:41:01;14.60;72.10
74809;DHT22;63338;39.544;2.596;2023-04-06T19:43:27;14.50;72.30
74809;DHT22;63338;39.544;2.596;2023-04-06T19:45:53;14.50;72.40
74809;DHT22;63338;39.544;2.596;2023-04-06T19:48:20;14.50;72.60
74809;DHT22;63338;39.544;2.596;2023-04-06T19:50:46;14.30;72.50
74809;DHT22;63338;39.544;2.596;2023-04-06T19:53:14;14.40;72.60
74809;DHT22;63338;39.544;2.596;2023-04-06T19:55:40;14.30;72.70
74809;DHT22;63338;39.544;2.596;2023-04-06T19:58:07;14.30;72.70
74809;DHT22;63338;39.544;2.596;2023-04-06T20:00:33;14.30;72.90
74809;DHT22;63338;39.544;2.596;2023-04-06T20:03:00;14.20;72.90
74809;DHT22;63338;39.544;2.596;2023-04-06T20:05:28;14.30;73.00
74809;DHT22;63338;39.544;2.596;2023-04-06T20:07:55;14.20;73.00
74809;DHT22;63338;39.544;2.596;2023-04-06T20:10:21;14.30;73.10
74809;DHT22;63338;39.544;2.596;2023-04-06T20:12:47;14.20;73.00
74809;DHT22;63338;39.544;2.596;2023-04-06T20:15:15;14.10;73.10
74809;DHT22;63338;39.544;2.596;2023-04-06T20:17:43;14.10;73.20
74809;DHT22;63338;39.544;2.596;2023-04-06T20:20:09;14.10;73.30
74809;DHT22;63338;39.544;2.596;2023-04-06T20:22:36;14.00;73.30
74809;DHT22;63338;39.544;2.596;2023-04-06T20:25:02;14.10;73.40
74809;DHT22;63338;39.544;2.596;2023-04-06T20:27:29;14.00;73.30
74809;DHT22;63338;39.544;2.596;2023-04-06T20:29:55;14.00;73.40
74809;DHT22;63338;39.544;2.596;2023-04-06T20:32:21;13.90;73.60
74809;DHT22;63338;39.544;2.596;2023-04-06T20:34:47;13.90;73.80
74809;DHT22;63338;39.544;2.596;2023-04-06T20:37:14;13.90;73.90
74809;DHT22;63338;39.544;2.596;2023-04-06T20:39:40;13.90;74.10
74809;DHT22;63338;39.544;2.596;2023-04-06T20:42:06;13.80;74.10
74809;DHT22;63338;39.544;2.596;2023-04-06T20:44:33;13.80;74.20
74809;DHT22;63338;39.544;2.596;2023-04-06T20:47:00;13.80;74.40
74809;DHT22;63338;39.544;2.596;2023-04-06T20:49:26;13.70;74.50
74809;DHT22;63338;39.544;2.596;2023-04-06T20:51:52;13.70;74.60
74809;DHT22;63338;39.544;2.596;2023-04-06T20:54:18;13.70;74.70
74809;DHT22;63338;39.544;2.596;2023-04-06T20:56:47;13.70;75.10
74809;DHT22;63338;39.544;2.596;2023-04-06T20:59:14;13.70;74.90
74809;DHT22;63338;39.544;2.596;2023-04-06T21:01:41;13.70;75.10
74809;DHT22;63338;39.544;2.596;2023-04-06T21:04:07;13.70;75.20
74809;DHT22;63338;39.544;2.596;2023-04-06T21:06:33;13.70;75.10
74809;DHT22;63338;39.544;2.596;2023-04-06T21:09:00;13.70;75.10
74809;DHT22;63338;39.544;2.596;2023-04-06T21:11:26;13.70;75.30
74809;DHT22;63338;39.544;2.596;2023-04-06T21:13:52;13.60;75.30
74809;DHT22;63338;39.544;2.596;2023-04-06T21:16:18;13.60;75.60
74809;DHT22;63338;39.544;2.596;2023-04-06T21:18:45;13.70;75.50
74809;DHT22;63338;39.544;2.596;2023-04-06T21:21:11;13.50;75.70
74809;DHT22;63338;39.544;2.596;2023-04-06T21:23:37;13.50;75.80
74809;DHT22;63338;39.544;2.596;2023-04-06T21:26:04;13.40;75.80
74809;DHT22;63338;39.544;2.596;2023-04-06T21:28:30;13.30;75.90
74809;DHT22;63338;39.544;2.596;2023-04-06T21:30:56;13.20;76.20
74809;DHT22;63338;39.544;2.596;2023-04-06T21:33:22;13.20;76.40
74809;DHT22;63338;39.544;2.596;2023-04-06T21:35:48;13.20;76.60
74809;DHT22;63338;39.544;2.596;2023-04-06T21:38:17;13.10;76.90
74809;DHT22;63338;39.544;2.596;2023-04-06T21:40:43;13.10;77.00
74809;DHT22;63338;39.544;2.596;2023-04-06T21:43:09;13.00;77.10
74809;DHT22;63338;39.544;2.596;2023-04-06T21:45:35;13.00;77.40
74809;DHT22;63338;39.544;2.596;2023-04-06T21:48:01;13.00;77.60
74809;DHT22;63338;39.544;2.596;2023-04-06T21:50:27;13.00;77.60
74809;DHT22;63338;39.544;2.596;2023-04-06T21:52:53;13.00;77.90
74809;DHT22;63338;39.544;2.596;2023-04-06T21:55:19;12.90;78.00
74809;DHT22;63338;39.544;2.596;2023-04-06T21:57:45;12.90;78.10
74809;DHT22;63338;39.544;2.596;2023-04-06T22:00:12;12.90;78.20
74809;DHT22;63338;39.544;2.596;2023-04-06T22:02:38;12.80;78.50
74809;DHT22;63338;39.544;2.596;2023-04-06T22:05:06;12.80;78.90
74809;DHT22;63338;39.544;2.596;2023-04-06T22:07:32;12.80;78.90
74809;DHT22;63338;39.544;2.596;2023-04-06T22:09:58;12.80;79.00
74809;DHT22;63338;39.544;2.596;2023-04-06T22:12:24;12.70;79.10
74809;DHT22;63338;39.544;2.596;2023-04-06T22:14:51;12.70;78.90
74809;DHT22;63338;39.544;2.596;2023-04-06T22:17:17;12.70;80.40
74809;DHT22;63338;39.544;2.596;2023-04-06T22:19:43;12.60;80.90
74809;DHT22;63338;39.544;2.596;2023-04-06T22:22:10;12.60;80.80
74809;DHT22;63338;39.544;2.596;2023-04-06T22:24:39;12.60;81.20
74809;DHT22;63338;39.544;2.596;2023-04-06T22:27:05;12.50;81.30
74809;DHT22;63338;39.544;2.596;2023-04-06T22:29:31;12.50;81.50
74809;DHT22;63338;39.544;2.596;2023-04-06T22:31:57;12.40;81.60
74809;DHT22;63338;39.544;2.596;2023-04-06T22:34:24;12.30;81.90
74809;DHT22;63338;39.544;2.596;2023-04-06T22:36:50;12.30;81.90
74809;DHT22;63338;39.544;2.596;2023-04-06T22:39:16;12.40;81.80
74809;DHT22;63338;39.544;2.596;2023-04-06T22:41:42;12.30;82.30
74809;DHT22;63338;39.544;2.596;2023-04-06T22:44:09;12.30;82.40
74809;DHT22;63338;39.544;2.596;2023-04-06T22:46:35;12.30;82.70
74809;DHT22;63338;39.544;2.596;2023-04-06T22:49:01;12.20;82.50
74809;DHT22;63338;39.544;2.596;2023-04-06T22:51:30;12.30;82.80
74809;DHT22;63338;39.544;2.596;2023-04-06T22:53:57;12.20;82.80
74809;DHT22;63338;39.544;2.596;2023-04-06T22:56:23;12.20;83.00
74809;DHT22;63338;39.544;2.596;2023-04-06T22:58:49;12.10;83.30
74809;DHT22;63338;39.544;2.596;2023-04-06T23:01:15;12.20;83.40
74809;DHT22;63338;39.544;2.596;2023-04-06T23:03:41;12.20;83.70
74809;DHT22;63338;39.544;2.596;2023-04-06T23:06:08;12.10;84.10
74809;DHT22;63338;39.544;2.596;2023-04-06T23:08:34;12.10;84.00
74809;DHT22;63338;39.544;2.596;2023-04-06T23:11:00;12.10;84.00
74809;DHT22;63338;39.544;2.596;2023-04-06T23:13:26;12.20;84.20
74809;DHT22;63338;39.544;2.596;2023-04-06T23:15:52;12.10;84.40
74809;DHT22;63338;39.544;2.596;2023-04-06T23:18:18;12.20;84.30
74809;DHT22;63338;39.544;2.596;2023-04-06T23:20:44;12.10;84.70
74809;DHT22;63338;39.544;2.596;2023-04-06T23:23:11;12.10;84.90
74809;DHT22;63338;39.544;2.596;2023-04-06T23:25:42;12.20;84.70
74809;DHT22;63338;39.544;2.596;2023-04-06T23:28:08;12.00;84.80
74809;DHT22;63338;39.544;2.596;2023-04-06T23:30:34;12.00;85.30
74809;DHT22;63338;39.544;2.596;2023-04-06T23:33:00;12.10;85.10
74809;DHT22;63338;39.544;2.596;2023-04-06T23:35:26;12.10;85.50
74809;DHT22;63338;39.544;2.596;2023-04-06T23:37:55;12.10;85.40
74809;DHT22;63338;39.544;2.596;2023-04-06T23:40:24;12.10;85.20
74809;DHT22;63338;39.544;2.596;2023-04-06T23:42:50;12.10;85.60
74809;DHT22;63338;39.544;2.596;2023-04-06T23:45:16;12.20;85.60
74809;DHT22;63338;39.544;2.596;2023-04-06T23:47:42;12.10;85.30
74809;DHT22;63338;39.544;2.596;2023-04-06T23:50:08;12.10;85.40
74809;DHT22;63338;39.544;2.596;2023-04-06T23:52:36;12.00;85.50
74809;DHT22;63338;39.544;2.596;2023-04-06T23:55:02;12.10;85.40
74809;DHT22;63338;39.544;2.596;2023-04-06T23:57:30;11.90;85.60
74809;DHT22;63338;39.544;2.596;2023-04-06T23:59:56;12.00;85.60
